<?xml version="1.0" encoding="UTF-8" standalone="no" ?>
<gpx xmlns="http://www.topografix.com/GPX/1/1" xmlns:xsi="http://www.w3.org/2001/XMLSchema-instance" xsi:schemaLocation="http://www.topografix.com/GPX/1/1 http://www.topografix.com/GPX/1/1/gpx.xsd" version="1.1" creator="VisuGPX - https://www.visugpx.com">
  <metadata>
    <name>LE GIBOIN - LE BIOTOP DU BOUT DU MONDE </name>
    <desc><![CDATA[FAIT]]></desc>
  </metadata>
  <trk>
    <name><![CDATA[LE GIBOIN  - LE BIOTOP DU BOUT DU MONDE-20187881]]></name>
    <trkseg>
      <trkpt lat="48.96286" lon="1.80736">
        <ele>22</ele>
        <time>2025-01-19T12:33:37Z</time>
      </trkpt>
      <trkpt lat="48.96287" lon="1.80757">
        <ele>22</ele>
        <time>2025-01-19T12:33:55Z</time>
      </trkpt>
      <trkpt lat="48.96288" lon="1.80774">
        <ele>22</ele>
        <time>2025-01-19T12:34:10Z</time>
      </trkpt>
      <trkpt lat="48.96288" lon="1.80787">
        <ele>22</ele>
        <time>2025-01-19T12:34:22Z</time>
      </trkpt>
      <trkpt lat="48.96283" lon="1.80807">
        <ele>22</ele>
        <time>2025-01-19T12:34:41Z</time>
      </trkpt>
      <trkpt lat="48.96299" lon="1.80808">
        <ele>22</ele>
        <time>2025-01-19T12:35:02Z</time>
      </trkpt>
      <trkpt lat="48.96303" lon="1.80808">
        <ele>22</ele>
        <time>2025-01-19T12:35:07Z</time>
      </trkpt>
      <trkpt lat="48.96306" lon="1.80809">
        <ele>22</ele>
        <time>2025-01-19T12:35:11Z</time>
      </trkpt>
      <trkpt lat="48.96308" lon="1.80813">
        <ele>23</ele>
        <time>2025-01-19T12:35:16Z</time>
      </trkpt>
      <trkpt lat="48.96311" lon="1.80821">
        <ele>23</ele>
        <time>2025-01-19T12:35:24Z</time>
      </trkpt>
      <trkpt lat="48.96311" lon="1.80825">
        <ele>23</ele>
        <time>2025-01-19T12:35:27Z</time>
      </trkpt>
      <trkpt lat="48.96322" lon="1.80824">
        <ele>23</ele>
        <time>2025-01-19T12:35:42Z</time>
      </trkpt>
      <trkpt lat="48.96321" lon="1.80802">
        <ele>23</ele>
        <time>2025-01-19T12:36:01Z</time>
      </trkpt>
      <trkpt lat="48.96345" lon="1.80801">
        <ele>23</ele>
        <time>2025-01-19T12:36:33Z</time>
      </trkpt>
      <trkpt lat="48.96363" lon="1.80803">
        <ele>22</ele>
        <time>2025-01-19T12:36:57Z</time>
      </trkpt>
      <trkpt lat="48.96429" lon="1.80805">
        <ele>22</ele>
        <time>2025-01-19T12:38:26Z</time>
      </trkpt>
      <trkpt lat="48.96427" lon="1.80753">
        <ele>22</ele>
        <time>2025-01-19T12:39:11Z</time>
      </trkpt>
      <trkpt lat="48.96415" lon="1.80685">
        <ele>20</ele>
        <time>2025-01-19T12:40:13Z</time>
      </trkpt>
      <trkpt lat="48.96402" lon="1.80624">
        <ele>20</ele>
        <time>2025-01-19T12:41:09Z</time>
      </trkpt>
      <trkpt lat="48.96392" lon="1.80557">
        <ele>20</ele>
        <time>2025-01-19T12:42:09Z</time>
      </trkpt>
      <trkpt lat="48.9637" lon="1.80434">
        <ele>20</ele>
        <time>2025-01-19T12:44:01Z</time>
      </trkpt>
      <trkpt lat="48.96352" lon="1.80299">
        <ele>21</ele>
        <time>2025-01-19T12:46:02Z</time>
      </trkpt>
      <trkpt lat="48.9634" lon="1.80114">
        <ele>19</ele>
        <time>2025-01-19T12:48:45Z</time>
      </trkpt>
      <trkpt lat="48.96336" lon="1.80091">
        <ele>19</ele>
        <time>2025-01-19T12:49:05Z</time>
      </trkpt>
      <trkpt lat="48.96324" lon="1.80044">
        <ele>19</ele>
        <time>2025-01-19T12:49:50Z</time>
      </trkpt>
      <trkpt lat="48.96325" lon="1.79916">
        <ele>20</ele>
        <time>2025-01-19T12:51:42Z</time>
      </trkpt>
      <trkpt lat="48.96328" lon="1.7985">
        <ele>22</ele>
        <time>2025-01-19T12:52:40Z</time>
      </trkpt>
      <trkpt lat="48.96334" lon="1.79782">
        <ele>24</ele>
        <time>2025-01-19T12:53:40Z</time>
      </trkpt>
      <trkpt lat="48.96334" lon="1.79783">
        <ele>24</ele>
        <time>2025-01-19T12:53:41Z</time>
      </trkpt>
      <trkpt lat="48.96334" lon="1.79782">
        <ele>24</ele>
        <time>2025-01-19T12:53:42Z</time>
      </trkpt>
      <trkpt lat="48.96345" lon="1.79778">
        <ele>24</ele>
        <time>2025-01-19T12:53:57Z</time>
      </trkpt>
      <trkpt lat="48.96405" lon="1.79752">
        <ele>24</ele>
        <time>2025-01-19T12:55:20Z</time>
      </trkpt>
      <trkpt lat="48.96457" lon="1.79726">
        <ele>22</ele>
        <time>2025-01-19T12:56:33Z</time>
      </trkpt>
      <trkpt lat="48.96536" lon="1.79695">
        <ele>20</ele>
        <time>2025-01-19T12:58:22Z</time>
      </trkpt>
      <trkpt lat="48.96586" lon="1.79681">
        <ele>19</ele>
        <time>2025-01-19T12:59:30Z</time>
      </trkpt>
      <trkpt lat="48.96602" lon="1.79677">
        <ele>19</ele>
        <time>2025-01-19T12:59:51Z</time>
      </trkpt>
      <trkpt lat="48.96664" lon="1.79653">
        <ele>18</ele>
        <time>2025-01-19T13:01:17Z</time>
      </trkpt>
      <trkpt lat="48.96725" lon="1.79627">
        <ele>19</ele>
        <time>2025-01-19T13:02:41Z</time>
      </trkpt>
      <trkpt lat="48.96726" lon="1.79626">
        <ele>19</ele>
        <time>2025-01-19T13:02:43Z</time>
      </trkpt>
      <trkpt lat="48.96828" lon="1.7988">
        <ele>23</ele>
        <time>2025-01-19T13:07:04Z</time>
      </trkpt>
      <trkpt lat="48.9683" lon="1.79888">
        <ele>24</ele>
        <time>2025-01-19T13:07:11Z</time>
      </trkpt>
      <trkpt lat="48.9686" lon="1.80084">
        <ele>22</ele>
        <time>2025-01-19T13:10:07Z</time>
      </trkpt>
      <trkpt lat="48.96874" lon="1.80164">
        <ele>20</ele>
        <time>2025-01-19T13:11:20Z</time>
      </trkpt>
      <trkpt lat="48.96899" lon="1.80233">
        <ele>19</ele>
        <time>2025-01-19T13:12:29Z</time>
      </trkpt>
      <trkpt lat="48.96921" lon="1.8033">
        <ele>17</ele>
        <time>2025-01-19T13:13:59Z</time>
      </trkpt>
      <trkpt lat="48.96936" lon="1.80372">
        <ele>17</ele>
        <time>2025-01-19T13:14:41Z</time>
      </trkpt>
      <trkpt lat="48.9703" lon="1.80702">
        <ele>17</ele>
        <time>2025-01-19T13:19:56Z</time>
      </trkpt>
      <trkpt lat="48.9703" lon="1.80711">
        <ele>18</ele>
        <time>2025-01-19T13:20:04Z</time>
      </trkpt>
      <trkpt lat="48.97038" lon="1.80722">
        <ele>18</ele>
        <time>2025-01-19T13:20:18Z</time>
      </trkpt>
      <trkpt lat="48.97071" lon="1.80858">
        <ele>19</ele>
        <time>2025-01-19T13:22:25Z</time>
      </trkpt>
      <trkpt lat="48.97073" lon="1.80864">
        <ele>19</ele>
        <time>2025-01-19T13:22:31Z</time>
      </trkpt>
      <trkpt lat="48.97089" lon="1.80896">
        <ele>19</ele>
        <time>2025-01-19T13:23:06Z</time>
      </trkpt>
      <trkpt lat="48.97096" lon="1.8094">
        <ele>19</ele>
        <time>2025-01-19T13:23:46Z</time>
      </trkpt>
      <trkpt lat="48.97096" lon="1.8096">
        <ele>19</ele>
        <time>2025-01-19T13:24:03Z</time>
      </trkpt>
      <trkpt lat="48.97102" lon="1.81006">
        <ele>19</ele>
        <time>2025-01-19T13:24:45Z</time>
      </trkpt>
      <trkpt lat="48.97144" lon="1.81222">
        <ele>19</ele>
        <time>2025-01-19T13:28:02Z</time>
      </trkpt>
      <trkpt lat="48.97162" lon="1.8128">
        <ele>19</ele>
        <time>2025-01-19T13:28:58Z</time>
      </trkpt>
      <trkpt lat="48.97191" lon="1.81329">
        <ele>20</ele>
        <time>2025-01-19T13:29:56Z</time>
      </trkpt>
      <trkpt lat="48.97215" lon="1.81363">
        <ele>19</ele>
        <time>2025-01-19T13:30:40Z</time>
      </trkpt>
      <trkpt lat="48.97226" lon="1.81375">
        <ele>20</ele>
        <time>2025-01-19T13:30:58Z</time>
      </trkpt>
      <trkpt lat="48.97241" lon="1.81389">
        <ele>20</ele>
        <time>2025-01-19T13:31:21Z</time>
      </trkpt>
      <trkpt lat="48.97265" lon="1.81406">
        <ele>20</ele>
        <time>2025-01-19T13:31:56Z</time>
      </trkpt>
      <trkpt lat="48.97379" lon="1.81494">
        <ele>20</ele>
        <time>2025-01-19T13:34:47Z</time>
      </trkpt>
      <trkpt lat="48.97421" lon="1.81523">
        <ele>20</ele>
        <time>2025-01-19T13:35:49Z</time>
      </trkpt>
      <trkpt lat="48.97447" lon="1.81547">
        <ele>19</ele>
        <time>2025-01-19T13:36:29Z</time>
      </trkpt>
      <trkpt lat="48.97484" lon="1.8159">
        <ele>18</ele>
        <time>2025-01-19T13:37:31Z</time>
      </trkpt>
      <trkpt lat="48.97503" lon="1.81636">
        <ele>19</ele>
        <time>2025-01-19T13:38:19Z</time>
      </trkpt>
      <trkpt lat="48.97511" lon="1.81648">
        <ele>19</ele>
        <time>2025-01-19T13:38:34Z</time>
      </trkpt>
      <trkpt lat="48.97524" lon="1.81645">
        <ele>19</ele>
        <time>2025-01-19T13:38:51Z</time>
      </trkpt>
      <trkpt lat="48.97535" lon="1.81647">
        <ele>20</ele>
        <time>2025-01-19T13:39:06Z</time>
      </trkpt>
      <trkpt lat="48.97549" lon="1.81658">
        <ele>20</ele>
        <time>2025-01-19T13:39:27Z</time>
      </trkpt>
      <trkpt lat="48.97595" lon="1.81716">
        <ele>21</ele>
        <time>2025-01-19T13:40:47Z</time>
      </trkpt>
      <trkpt lat="48.97613" lon="1.81744">
        <ele>20</ele>
        <time>2025-01-19T13:41:21Z</time>
      </trkpt>
      <trkpt lat="48.97631" lon="1.81781">
        <ele>18</ele>
        <time>2025-01-19T13:42:02Z</time>
      </trkpt>
      <trkpt lat="48.97652" lon="1.81833">
        <ele>18</ele>
        <time>2025-01-19T13:42:55Z</time>
      </trkpt>
      <trkpt lat="48.97674" lon="1.81899">
        <ele>20</ele>
        <time>2025-01-19T13:44:00Z</time>
      </trkpt>
      <trkpt lat="48.97706" lon="1.82012">
        <ele>20</ele>
        <time>2025-01-19T13:45:48Z</time>
      </trkpt>
      <trkpt lat="48.97718" lon="1.82036">
        <ele>20</ele>
        <time>2025-01-19T13:46:14Z</time>
      </trkpt>
      <trkpt lat="48.97772" lon="1.82127">
        <ele>20</ele>
        <time>2025-01-19T13:48:02Z</time>
      </trkpt>
      <trkpt lat="48.97794" lon="1.82158">
        <ele>20</ele>
        <time>2025-01-19T13:48:41Z</time>
      </trkpt>
      <trkpt lat="48.97803" lon="1.82183">
        <ele>20</ele>
        <time>2025-01-19T13:49:06Z</time>
      </trkpt>
      <trkpt lat="48.97805" lon="1.82201">
        <ele>19</ele>
        <time>2025-01-19T13:49:22Z</time>
      </trkpt>
      <trkpt lat="48.97808" lon="1.82203">
        <ele>19</ele>
        <time>2025-01-19T13:49:27Z</time>
      </trkpt>
      <trkpt lat="48.97815" lon="1.82207">
        <ele>19</ele>
        <time>2025-01-19T13:49:37Z</time>
      </trkpt>
      <trkpt lat="48.97844" lon="1.82273">
        <ele>18</ele>
        <time>2025-01-19T13:50:46Z</time>
      </trkpt>
      <trkpt lat="48.9789" lon="1.82405">
        <ele>19</ele>
        <time>2025-01-19T13:52:57Z</time>
      </trkpt>
      <trkpt lat="48.97907" lon="1.82465">
        <ele>18</ele>
        <time>2025-01-19T13:53:55Z</time>
      </trkpt>
      <trkpt lat="48.97921" lon="1.82513">
        <ele>18</ele>
        <time>2025-01-19T13:54:41Z</time>
      </trkpt>
      <trkpt lat="48.97923" lon="1.82521">
        <ele>19</ele>
        <time>2025-01-19T13:54:48Z</time>
      </trkpt>
      <trkpt lat="48.97921" lon="1.82527">
        <ele>19</ele>
        <time>2025-01-19T13:54:54Z</time>
      </trkpt>
      <trkpt lat="48.97931" lon="1.82611">
        <ele>20</ele>
        <time>2025-01-19T13:56:09Z</time>
      </trkpt>
      <trkpt lat="48.97939" lon="1.82661">
        <ele>19</ele>
        <time>2025-01-19T13:56:54Z</time>
      </trkpt>
      <trkpt lat="48.97996" lon="1.82799">
        <ele>20</ele>
        <time>2025-01-19T13:59:17Z</time>
      </trkpt>
      <trkpt lat="48.98042" lon="1.82888">
        <ele>20</ele>
        <time>2025-01-19T14:00:56Z</time>
      </trkpt>
      <trkpt lat="48.98114" lon="1.83082">
        <ele>19</ele>
        <time>2025-01-19T14:04:11Z</time>
      </trkpt>
      <trkpt lat="48.98205" lon="1.83349">
        <ele>20</ele>
        <time>2025-01-19T14:08:34Z</time>
      </trkpt>
      <trkpt lat="48.98254" lon="1.83502">
        <ele>18</ele>
        <time>2025-01-19T14:11:04Z</time>
      </trkpt>
      <trkpt lat="48.98317" lon="1.83639">
        <ele>18</ele>
        <time>2025-01-19T14:13:30Z</time>
      </trkpt>
      <trkpt lat="48.98337" lon="1.83679">
        <ele>18</ele>
        <time>2025-01-19T14:14:14Z</time>
      </trkpt>
      <trkpt lat="48.98361" lon="1.83714">
        <ele>17</ele>
        <time>2025-01-19T14:14:58Z</time>
      </trkpt>
      <trkpt lat="48.98373" lon="1.83727">
        <ele>17</ele>
        <time>2025-01-19T14:15:18Z</time>
      </trkpt>
      <trkpt lat="48.98373" lon="1.83727">
        <ele>17</ele>
        <time>2025-01-19T14:15:18Z</time>
      </trkpt>
      <trkpt lat="48.98392" lon="1.83718">
        <ele>17</ele>
        <time>2025-01-19T14:15:45Z</time>
      </trkpt>
      <trkpt lat="48.98386" lon="1.83858">
        <ele>17</ele>
        <time>2025-01-19T14:17:48Z</time>
      </trkpt>
      <trkpt lat="48.9838" lon="1.83873">
        <ele>17</ele>
        <time>2025-01-19T14:18:03Z</time>
      </trkpt>
      <trkpt lat="48.98384" lon="1.83886">
        <ele>17</ele>
        <time>2025-01-19T14:18:15Z</time>
      </trkpt>
      <trkpt lat="48.98385" lon="1.839">
        <ele>17</ele>
        <time>2025-01-19T14:18:28Z</time>
      </trkpt>
      <trkpt lat="48.98376" lon="1.83969">
        <ele>18</ele>
        <time>2025-01-19T14:19:29Z</time>
      </trkpt>
      <trkpt lat="48.98376" lon="1.84062">
        <ele>18</ele>
        <time>2025-01-19T14:20:51Z</time>
      </trkpt>
      <trkpt lat="48.98377" lon="1.84076">
        <ele>18</ele>
        <time>2025-01-19T14:21:03Z</time>
      </trkpt>
      <trkpt lat="48.98383" lon="1.84097">
        <ele>18</ele>
        <time>2025-01-19T14:21:23Z</time>
      </trkpt>
      <trkpt lat="48.98388" lon="1.8413">
        <ele>19</ele>
        <time>2025-01-19T14:21:53Z</time>
      </trkpt>
      <trkpt lat="48.98398" lon="1.84146">
        <ele>18</ele>
        <time>2025-01-19T14:22:12Z</time>
      </trkpt>
      <trkpt lat="48.98407" lon="1.84168">
        <ele>18</ele>
        <time>2025-01-19T14:22:35Z</time>
      </trkpt>
      <trkpt lat="48.98415" lon="1.84193">
        <ele>19</ele>
        <time>2025-01-19T14:22:59Z</time>
      </trkpt>
      <trkpt lat="48.98422" lon="1.84206">
        <ele>19</ele>
        <time>2025-01-19T14:23:14Z</time>
      </trkpt>
      <trkpt lat="48.98426" lon="1.84216">
        <ele>19</ele>
        <time>2025-01-19T14:23:24Z</time>
      </trkpt>
      <trkpt lat="48.9844" lon="1.84236">
        <ele>19</ele>
        <time>2025-01-19T14:23:50Z</time>
      </trkpt>
      <trkpt lat="48.98448" lon="1.84237">
        <ele>18</ele>
        <time>2025-01-19T14:24:01Z</time>
      </trkpt>
      <trkpt lat="48.98446" lon="1.84254">
        <ele>19</ele>
        <time>2025-01-19T14:24:16Z</time>
      </trkpt>
      <trkpt lat="48.98442" lon="1.84264">
        <ele>19</ele>
        <time>2025-01-19T14:24:26Z</time>
      </trkpt>
      <trkpt lat="48.98446" lon="1.84272">
        <ele>19</ele>
        <time>2025-01-19T14:24:35Z</time>
      </trkpt>
      <trkpt lat="48.98449" lon="1.84284">
        <ele>19</ele>
        <time>2025-01-19T14:24:46Z</time>
      </trkpt>
      <trkpt lat="48.98446" lon="1.84293">
        <ele>19</ele>
        <time>2025-01-19T14:24:55Z</time>
      </trkpt>
      <trkpt lat="48.98496" lon="1.84432">
        <ele>19</ele>
        <time>2025-01-19T14:27:14Z</time>
      </trkpt>
      <trkpt lat="48.98506" lon="1.84447">
        <ele>19</ele>
        <time>2025-01-19T14:27:32Z</time>
      </trkpt>
      <trkpt lat="48.98634" lon="1.84848">
        <ele>19</ele>
        <time>2025-01-19T14:34:03Z</time>
      </trkpt>
      <trkpt lat="48.98636" lon="1.84878">
        <ele>19</ele>
        <time>2025-01-19T14:34:29Z</time>
      </trkpt>
      <trkpt lat="48.9864" lon="1.84928">
        <ele>19</ele>
        <time>2025-01-19T14:35:13Z</time>
      </trkpt>
      <trkpt lat="48.98633" lon="1.85042">
        <ele>19</ele>
        <time>2025-01-19T14:36:54Z</time>
      </trkpt>
      <trkpt lat="48.98634" lon="1.85139">
        <ele>18</ele>
        <time>2025-01-19T14:38:19Z</time>
      </trkpt>
      <trkpt lat="48.98643" lon="1.85351">
        <ele>18</ele>
        <time>2025-01-19T14:41:25Z</time>
      </trkpt>
      <trkpt lat="48.98658" lon="1.85434">
        <ele>18</ele>
        <time>2025-01-19T14:42:40Z</time>
      </trkpt>
      <trkpt lat="48.98674" lon="1.85507">
        <ele>18</ele>
        <time>2025-01-19T14:43:48Z</time>
      </trkpt>
      <trkpt lat="48.98689" lon="1.8563">
        <ele>20</ele>
        <time>2025-01-19T14:45:37Z</time>
      </trkpt>
      <trkpt lat="48.98705" lon="1.85785">
        <ele>20</ele>
        <time>2025-01-19T14:47:54Z</time>
      </trkpt>
      <trkpt lat="48.98708" lon="1.85797">
        <ele>20</ele>
        <time>2025-01-19T14:48:06Z</time>
      </trkpt>
      <trkpt lat="48.98708" lon="1.85797">
        <ele>20</ele>
        <time>2025-01-19T14:48:06Z</time>
      </trkpt>
      <trkpt lat="48.98768" lon="1.86067">
        <ele>19</ele>
        <time>2025-01-19T14:52:15Z</time>
      </trkpt>
      <trkpt lat="48.98839" lon="1.86374">
        <ele>19</ele>
        <time>2025-01-19T14:57:00Z</time>
      </trkpt>
      <trkpt lat="48.98895" lon="1.86574">
        <ele>19</ele>
        <time>2025-01-19T15:00:11Z</time>
      </trkpt>
      <trkpt lat="48.98955" lon="1.86792">
        <ele>18</ele>
        <time>2025-01-19T15:03:38Z</time>
      </trkpt>
      <trkpt lat="48.98955" lon="1.86792">
        <ele>18</ele>
        <time>2025-01-19T15:03:38Z</time>
      </trkpt>
      <trkpt lat="48.98958" lon="1.86803">
        <ele>17</ele>
        <time>2025-01-19T15:03:48Z</time>
      </trkpt>
      <trkpt lat="48.9895" lon="1.86808">
        <ele>18</ele>
        <time>2025-01-19T15:04:00Z</time>
      </trkpt>
      <trkpt lat="48.98874" lon="1.86849">
        <ele>19</ele>
        <time>2025-01-19T15:05:47Z</time>
      </trkpt>
      <trkpt lat="48.98761" lon="1.86911">
        <ele>19</ele>
        <time>2025-01-19T15:08:28Z</time>
      </trkpt>
      <trkpt lat="48.9858" lon="1.86985">
        <ele>23</ele>
        <time>2025-01-19T15:12:38Z</time>
      </trkpt>
      <trkpt lat="48.98649" lon="1.87261">
        <ele>23</ele>
        <time>2025-01-19T15:16:56Z</time>
      </trkpt>
      <trkpt lat="48.98765" lon="1.87688">
        <ele>22</ele>
        <time>2025-01-19T15:23:41Z</time>
      </trkpt>
      <trkpt lat="48.98912" lon="1.88246">
        <ele>22</ele>
        <time>2025-01-19T15:32:28Z</time>
      </trkpt>
      <trkpt lat="48.98902" lon="1.88251">
        <ele>22</ele>
        <time>2025-01-19T15:32:42Z</time>
      </trkpt>
      <trkpt lat="48.98578" lon="1.88421">
        <ele>26</ele>
        <time>2025-01-19T15:40:19Z</time>
      </trkpt>
      <trkpt lat="48.98427" lon="1.8837">
        <ele>25</ele>
        <time>2025-01-19T15:43:45Z</time>
      </trkpt>
      <trkpt lat="48.98411" lon="1.88356">
        <ele>25</ele>
        <time>2025-01-19T15:44:10Z</time>
      </trkpt>
      <trkpt lat="48.98406" lon="1.88354">
        <ele>25</ele>
        <time>2025-01-19T15:44:17Z</time>
      </trkpt>
      <trkpt lat="48.98387" lon="1.88349">
        <ele>26</ele>
        <time>2025-01-19T15:44:43Z</time>
      </trkpt>
      <trkpt lat="48.98368" lon="1.88337">
        <ele>27</ele>
        <time>2025-01-19T15:45:10Z</time>
      </trkpt>
      <trkpt lat="48.98351" lon="1.88321">
        <ele>27</ele>
        <time>2025-01-19T15:45:37Z</time>
      </trkpt>
      <trkpt lat="48.98333" lon="1.88298">
        <ele>28</ele>
        <time>2025-01-19T15:46:08Z</time>
      </trkpt>
      <trkpt lat="48.98322" lon="1.88288">
        <ele>28</ele>
        <time>2025-01-19T15:46:25Z</time>
      </trkpt>
      <trkpt lat="48.98317" lon="1.88287">
        <ele>28</ele>
        <time>2025-01-19T15:46:32Z</time>
      </trkpt>
      <trkpt lat="48.98303" lon="1.8829">
        <ele>28</ele>
        <time>2025-01-19T15:46:51Z</time>
      </trkpt>
      <trkpt lat="48.98283" lon="1.88306">
        <ele>29</ele>
        <time>2025-01-19T15:47:21Z</time>
      </trkpt>
      <trkpt lat="48.98267" lon="1.88306">
        <ele>30</ele>
        <time>2025-01-19T15:47:42Z</time>
      </trkpt>
      <trkpt lat="48.98251" lon="1.88301">
        <ele>30</ele>
        <time>2025-01-19T15:48:04Z</time>
      </trkpt>
      <trkpt lat="48.98197" lon="1.88282">
        <ele>32</ele>
        <time>2025-01-19T15:49:18Z</time>
      </trkpt>
      <trkpt lat="48.98036" lon="1.8823">
        <ele>32</ele>
        <time>2025-01-19T15:52:58Z</time>
      </trkpt>
      <trkpt lat="48.97806" lon="1.8815">
        <ele>30</ele>
        <time>2025-01-19T15:58:12Z</time>
      </trkpt>
      <trkpt lat="48.97787" lon="1.88144">
        <ele>30</ele>
        <time>2025-01-19T15:58:38Z</time>
      </trkpt>
      <trkpt lat="48.9778" lon="1.88145">
        <ele>30</ele>
        <time>2025-01-19T15:58:48Z</time>
      </trkpt>
      <trkpt lat="48.9778" lon="1.88145">
        <ele>30</ele>
        <time>2025-01-19T15:58:48Z</time>
      </trkpt>
      <trkpt lat="48.9778" lon="1.88145">
        <ele>30</ele>
        <time>2025-01-19T15:58:48Z</time>
      </trkpt>
      <trkpt lat="48.97815" lon="1.88014">
        <ele>30</ele>
        <time>2025-01-19T16:00:52Z</time>
      </trkpt>
      <trkpt lat="48.97863" lon="1.87873">
        <ele>31</ele>
        <time>2025-01-19T16:03:11Z</time>
      </trkpt>
      <trkpt lat="48.97867" lon="1.87838">
        <ele>32</ele>
        <time>2025-01-19T16:03:42Z</time>
      </trkpt>
      <trkpt lat="48.97887" lon="1.87765">
        <ele>30</ele>
        <time>2025-01-19T16:04:51Z</time>
      </trkpt>
      <trkpt lat="48.97891" lon="1.87732">
        <ele>29</ele>
        <time>2025-01-19T16:05:21Z</time>
      </trkpt>
      <trkpt lat="48.97878" lon="1.87718">
        <ele>29</ele>
        <time>2025-01-19T16:05:42Z</time>
      </trkpt>
      <trkpt lat="48.97826" lon="1.8768">
        <ele>29</ele>
        <time>2025-01-19T16:06:59Z</time>
      </trkpt>
      <trkpt lat="48.97783" lon="1.87673">
        <ele>29</ele>
        <time>2025-01-19T16:07:56Z</time>
      </trkpt>
      <trkpt lat="48.97765" lon="1.87661">
        <ele>29</ele>
        <time>2025-01-19T16:08:23Z</time>
      </trkpt>
      <trkpt lat="48.97762" lon="1.87644">
        <ele>28</ele>
        <time>2025-01-19T16:08:38Z</time>
      </trkpt>
      <trkpt lat="48.9776" lon="1.87605">
        <ele>26</ele>
        <time>2025-01-19T16:09:12Z</time>
      </trkpt>
      <trkpt lat="48.97753" lon="1.87547">
        <ele>26</ele>
        <time>2025-01-19T16:10:04Z</time>
      </trkpt>
      <trkpt lat="48.97754" lon="1.87507">
        <ele>27</ele>
        <time>2025-01-19T16:10:39Z</time>
      </trkpt>
      <trkpt lat="48.97744" lon="1.8748">
        <ele>26</ele>
        <time>2025-01-19T16:11:06Z</time>
      </trkpt>
      <trkpt lat="48.97742" lon="1.87463">
        <ele>26</ele>
        <time>2025-01-19T16:11:21Z</time>
      </trkpt>
      <trkpt lat="48.97742" lon="1.87445">
        <ele>26</ele>
        <time>2025-01-19T16:11:37Z</time>
      </trkpt>
      <trkpt lat="48.9776" lon="1.87412">
        <ele>26</ele>
        <time>2025-01-19T16:12:15Z</time>
      </trkpt>
      <trkpt lat="48.97782" lon="1.87418">
        <ele>25</ele>
        <time>2025-01-19T16:12:45Z</time>
      </trkpt>
      <trkpt lat="48.9779" lon="1.87428">
        <ele>25</ele>
        <time>2025-01-19T16:12:58Z</time>
      </trkpt>
      <trkpt lat="48.97797" lon="1.87432">
        <ele>25</ele>
        <time>2025-01-19T16:13:08Z</time>
      </trkpt>
      <trkpt lat="48.97806" lon="1.87429">
        <ele>25</ele>
        <time>2025-01-19T16:13:21Z</time>
      </trkpt>
      <trkpt lat="48.97817" lon="1.87414">
        <ele>24</ele>
        <time>2025-01-19T16:13:40Z</time>
      </trkpt>
      <trkpt lat="48.97821" lon="1.87394">
        <ele>24</ele>
        <time>2025-01-19T16:13:59Z</time>
      </trkpt>
      <trkpt lat="48.97819" lon="1.87375">
        <ele>25</ele>
        <time>2025-01-19T16:14:15Z</time>
      </trkpt>
      <trkpt lat="48.97812" lon="1.87356">
        <ele>25</ele>
        <time>2025-01-19T16:14:35Z</time>
      </trkpt>
      <trkpt lat="48.97804" lon="1.8735">
        <ele>25</ele>
        <time>2025-01-19T16:14:46Z</time>
      </trkpt>
      <trkpt lat="48.97783" lon="1.87351">
        <ele>25</ele>
        <time>2025-01-19T16:15:14Z</time>
      </trkpt>
      <trkpt lat="48.97772" lon="1.87345">
        <ele>25</ele>
        <time>2025-01-19T16:15:30Z</time>
      </trkpt>
      <trkpt lat="48.97766" lon="1.87338">
        <ele>25</ele>
        <time>2025-01-19T16:15:40Z</time>
      </trkpt>
      <trkpt lat="48.97762" lon="1.87325">
        <ele>25</ele>
        <time>2025-01-19T16:15:53Z</time>
      </trkpt>
      <trkpt lat="48.97761" lon="1.87298">
        <ele>24</ele>
        <time>2025-01-19T16:16:16Z</time>
      </trkpt>
      <trkpt lat="48.97762" lon="1.87257">
        <ele>24</ele>
        <time>2025-01-19T16:16:52Z</time>
      </trkpt>
      <trkpt lat="48.97761" lon="1.87234">
        <ele>24</ele>
        <time>2025-01-19T16:17:13Z</time>
      </trkpt>
      <trkpt lat="48.97755" lon="1.87219">
        <ele>24</ele>
        <time>2025-01-19T16:17:28Z</time>
      </trkpt>
      <trkpt lat="48.97732" lon="1.87199">
        <ele>24</ele>
        <time>2025-01-19T16:18:03Z</time>
      </trkpt>
      <trkpt lat="48.97727" lon="1.87189">
        <ele>24</ele>
        <time>2025-01-19T16:18:14Z</time>
      </trkpt>
      <trkpt lat="48.97729" lon="1.8717">
        <ele>25</ele>
        <time>2025-01-19T16:18:31Z</time>
      </trkpt>
      <trkpt lat="48.97727" lon="1.87155">
        <ele>25</ele>
        <time>2025-01-19T16:18:45Z</time>
      </trkpt>
      <trkpt lat="48.97723" lon="1.87148">
        <ele>25</ele>
        <time>2025-01-19T16:18:53Z</time>
      </trkpt>
      <trkpt lat="48.97717" lon="1.87146">
        <ele>25</ele>
        <time>2025-01-19T16:19:01Z</time>
      </trkpt>
      <trkpt lat="48.97701" lon="1.87149">
        <ele>24</ele>
        <time>2025-01-19T16:19:22Z</time>
      </trkpt>
      <trkpt lat="48.97693" lon="1.87139">
        <ele>24</ele>
        <time>2025-01-19T16:19:36Z</time>
      </trkpt>
      <trkpt lat="48.9769" lon="1.8713">
        <ele>24</ele>
        <time>2025-01-19T16:19:45Z</time>
      </trkpt>
      <trkpt lat="48.97692" lon="1.87118">
        <ele>24</ele>
        <time>2025-01-19T16:19:56Z</time>
      </trkpt>
      <trkpt lat="48.9769" lon="1.8707">
        <ele>24</ele>
        <time>2025-01-19T16:20:38Z</time>
      </trkpt>
      <trkpt lat="48.97704" lon="1.86999">
        <ele>23</ele>
        <time>2025-01-19T16:21:43Z</time>
      </trkpt>
      <trkpt lat="48.97701" lon="1.86975">
        <ele>23</ele>
        <time>2025-01-19T16:22:04Z</time>
      </trkpt>
      <trkpt lat="48.97692" lon="1.86951">
        <ele>23</ele>
        <time>2025-01-19T16:22:29Z</time>
      </trkpt>
      <trkpt lat="48.9769" lon="1.86938">
        <ele>23</ele>
        <time>2025-01-19T16:22:40Z</time>
      </trkpt>
      <trkpt lat="48.97692" lon="1.86925">
        <ele>23</ele>
        <time>2025-01-19T16:22:52Z</time>
      </trkpt>
      <trkpt lat="48.97698" lon="1.86916">
        <ele>23</ele>
        <time>2025-01-19T16:23:03Z</time>
      </trkpt>
      <trkpt lat="48.97711" lon="1.86907">
        <ele>23</ele>
        <time>2025-01-19T16:23:22Z</time>
      </trkpt>
      <trkpt lat="48.97745" lon="1.8689">
        <ele>23</ele>
        <time>2025-01-19T16:24:10Z</time>
      </trkpt>
      <trkpt lat="48.97749" lon="1.86876">
        <ele>23</ele>
        <time>2025-01-19T16:24:23Z</time>
      </trkpt>
      <trkpt lat="48.9775" lon="1.86855">
        <ele>23</ele>
        <time>2025-01-19T16:24:42Z</time>
      </trkpt>
      <trkpt lat="48.9774" lon="1.86778">
        <ele>23</ele>
        <time>2025-01-19T16:25:51Z</time>
      </trkpt>
      <trkpt lat="48.97735" lon="1.86715">
        <ele>23</ele>
        <time>2025-01-19T16:26:46Z</time>
      </trkpt>
      <trkpt lat="48.97719" lon="1.86657">
        <ele>22</ele>
        <time>2025-01-19T16:27:41Z</time>
      </trkpt>
      <trkpt lat="48.97707" lon="1.86633">
        <ele>22</ele>
        <time>2025-01-19T16:28:08Z</time>
      </trkpt>
      <trkpt lat="48.977" lon="1.86607">
        <ele>22</ele>
        <time>2025-01-19T16:28:32Z</time>
      </trkpt>
      <trkpt lat="48.97658" lon="1.86449">
        <ele>23</ele>
        <time>2025-01-19T16:31:02Z</time>
      </trkpt>
      <trkpt lat="48.97634" lon="1.86384">
        <ele>23</ele>
        <time>2025-01-19T16:32:07Z</time>
      </trkpt>
      <trkpt lat="48.97612" lon="1.86331">
        <ele>22</ele>
        <time>2025-01-19T16:33:02Z</time>
      </trkpt>
      <trkpt lat="48.97598" lon="1.86303">
        <ele>23</ele>
        <time>2025-01-19T16:33:33Z</time>
      </trkpt>
      <trkpt lat="48.9759" lon="1.86295">
        <ele>23</ele>
        <time>2025-01-19T16:33:45Z</time>
      </trkpt>
      <trkpt lat="48.97552" lon="1.86287">
        <ele>23</ele>
        <time>2025-01-19T16:34:37Z</time>
      </trkpt>
      <trkpt lat="48.97531" lon="1.8628">
        <ele>23</ele>
        <time>2025-01-19T16:35:05Z</time>
      </trkpt>
      <trkpt lat="48.97523" lon="1.86273">
        <ele>23</ele>
        <time>2025-01-19T16:35:18Z</time>
      </trkpt>
      <trkpt lat="48.97518" lon="1.86266">
        <ele>23</ele>
        <time>2025-01-19T16:35:27Z</time>
      </trkpt>
      <trkpt lat="48.97508" lon="1.8625">
        <ele>24</ele>
        <time>2025-01-19T16:35:46Z</time>
      </trkpt>
      <trkpt lat="48.97508" lon="1.8625">
        <ele>24</ele>
        <time>2025-01-19T16:35:46Z</time>
      </trkpt>
      <trkpt lat="48.97506" lon="1.86241">
        <ele>24</ele>
        <time>2025-01-19T16:35:54Z</time>
      </trkpt>
      <trkpt lat="48.97505" lon="1.86237">
        <ele>24</ele>
        <time>2025-01-19T16:35:58Z</time>
      </trkpt>
      <trkpt lat="48.97504" lon="1.86233">
        <ele>24</ele>
        <time>2025-01-19T16:36:02Z</time>
      </trkpt>
      <trkpt lat="48.97504" lon="1.86229">
        <ele>24</ele>
        <time>2025-01-19T16:36:05Z</time>
      </trkpt>
      <trkpt lat="48.97499" lon="1.86231">
        <ele>24</ele>
        <time>2025-01-19T16:36:12Z</time>
      </trkpt>
      <trkpt lat="48.97278" lon="1.86308">
        <ele>26</ele>
        <time>2025-01-19T16:41:15Z</time>
      </trkpt>
      <trkpt lat="48.97263" lon="1.86305">
        <ele>27</ele>
        <time>2025-01-19T16:41:35Z</time>
      </trkpt>
      <trkpt lat="48.97226" lon="1.86035">
        <ele>27</ele>
        <time>2025-01-19T16:45:37Z</time>
      </trkpt>
      <trkpt lat="48.97232" lon="1.86033">
        <ele>27</ele>
        <time>2025-01-19T16:45:45Z</time>
      </trkpt>
      <trkpt lat="48.97212" lon="1.85925">
        <ele>26</ele>
        <time>2025-01-19T16:47:23Z</time>
      </trkpt>
      <trkpt lat="48.97179" lon="1.85816">
        <ele>25</ele>
        <time>2025-01-19T16:49:08Z</time>
      </trkpt>
      <trkpt lat="48.97147" lon="1.85695">
        <ele>24</ele>
        <time>2025-01-19T16:51:02Z</time>
      </trkpt>
      <trkpt lat="48.97142" lon="1.85696">
        <ele>24</ele>
        <time>2025-01-19T16:51:09Z</time>
      </trkpt>
      <trkpt lat="48.97136" lon="1.85701">
        <ele>24</ele>
        <time>2025-01-19T16:51:18Z</time>
      </trkpt>
      <trkpt lat="48.97132" lon="1.85691">
        <ele>24</ele>
        <time>2025-01-19T16:51:29Z</time>
      </trkpt>
      <trkpt lat="48.97126" lon="1.85686">
        <ele>24</ele>
        <time>2025-01-19T16:51:38Z</time>
      </trkpt>
      <trkpt lat="48.97115" lon="1.85677">
        <ele>24</ele>
        <time>2025-01-19T16:51:54Z</time>
      </trkpt>
      <trkpt lat="48.97104" lon="1.85676">
        <ele>24</ele>
        <time>2025-01-19T16:52:09Z</time>
      </trkpt>
      <trkpt lat="48.97102" lon="1.85668">
        <ele>24</ele>
        <time>2025-01-19T16:52:17Z</time>
      </trkpt>
      <trkpt lat="48.971" lon="1.85662">
        <ele>24</ele>
        <time>2025-01-19T16:52:22Z</time>
      </trkpt>
      <trkpt lat="48.97071" lon="1.85679">
        <ele>24</ele>
        <time>2025-01-19T16:53:04Z</time>
      </trkpt>
      <trkpt lat="48.97014" lon="1.85714">
        <ele>25</ele>
        <time>2025-01-19T16:54:26Z</time>
      </trkpt>
      <trkpt lat="48.97008" lon="1.85717">
        <ele>25</ele>
        <time>2025-01-19T16:54:34Z</time>
      </trkpt>
      <trkpt lat="48.97001" lon="1.85716">
        <ele>26</ele>
        <time>2025-01-19T16:54:44Z</time>
      </trkpt>
      <trkpt lat="48.96988" lon="1.85707">
        <ele>26</ele>
        <time>2025-01-19T16:55:03Z</time>
      </trkpt>
      <trkpt lat="48.96983" lon="1.85697">
        <ele>25</ele>
        <time>2025-01-19T16:55:14Z</time>
      </trkpt>
      <trkpt lat="48.96949" lon="1.85576">
        <ele>24</ele>
        <time>2025-01-19T16:57:09Z</time>
      </trkpt>
      <trkpt lat="48.96896" lon="1.85404">
        <ele>26</ele>
        <time>2025-01-19T16:59:56Z</time>
      </trkpt>
      <trkpt lat="48.96885" lon="1.85368">
        <ele>27</ele>
        <time>2025-01-19T17:00:30Z</time>
      </trkpt>
      <trkpt lat="48.96877" lon="1.8534">
        <ele>27</ele>
        <time>2025-01-19T17:00:57Z</time>
      </trkpt>
      <trkpt lat="48.96845" lon="1.85236">
        <ele>27</ele>
        <time>2025-01-19T17:02:38Z</time>
      </trkpt>
      <trkpt lat="48.96838" lon="1.85209">
        <ele>27</ele>
        <time>2025-01-19T17:03:03Z</time>
      </trkpt>
      <trkpt lat="48.96821" lon="1.8514">
        <ele>27</ele>
        <time>2025-01-19T17:04:08Z</time>
      </trkpt>
      <trkpt lat="48.96809" lon="1.85081">
        <ele>27</ele>
        <time>2025-01-19T17:05:02Z</time>
      </trkpt>
      <trkpt lat="48.96805" lon="1.85082">
        <ele>27</ele>
        <time>2025-01-19T17:05:07Z</time>
      </trkpt>
      <trkpt lat="48.96804" lon="1.85076">
        <ele>27</ele>
        <time>2025-01-19T17:05:13Z</time>
      </trkpt>
      <trkpt lat="48.96799" lon="1.85054">
        <ele>28</ele>
        <time>2025-01-19T17:05:33Z</time>
      </trkpt>
      <trkpt lat="48.96794" lon="1.85042">
        <ele>28</ele>
        <time>2025-01-19T17:05:46Z</time>
      </trkpt>
      <trkpt lat="48.96791" lon="1.8504">
        <ele>28</ele>
        <time>2025-01-19T17:05:50Z</time>
      </trkpt>
      <trkpt lat="48.96786" lon="1.85032">
        <ele>28</ele>
        <time>2025-01-19T17:06:00Z</time>
      </trkpt>
      <trkpt lat="48.96785" lon="1.85022">
        <ele>28</ele>
        <time>2025-01-19T17:06:08Z</time>
      </trkpt>
      <trkpt lat="48.96779" lon="1.85032">
        <ele>28</ele>
        <time>2025-01-19T17:06:20Z</time>
      </trkpt>
      <trkpt lat="48.96757" lon="1.85049">
        <ele>28</ele>
        <time>2025-01-19T17:06:53Z</time>
      </trkpt>
      <trkpt lat="48.96713" lon="1.85072">
        <ele>29</ele>
        <time>2025-01-19T17:07:55Z</time>
      </trkpt>
      <trkpt lat="48.96686" lon="1.85084">
        <ele>30</ele>
        <time>2025-01-19T17:08:33Z</time>
      </trkpt>
      <trkpt lat="48.96665" lon="1.85089">
        <ele>30</ele>
        <time>2025-01-19T17:09:01Z</time>
      </trkpt>
      <trkpt lat="48.96631" lon="1.85095">
        <ele>30</ele>
        <time>2025-01-19T17:09:47Z</time>
      </trkpt>
      <trkpt lat="48.96569" lon="1.851">
        <ele>30</ele>
        <time>2025-01-19T17:11:10Z</time>
      </trkpt>
      <trkpt lat="48.96565" lon="1.85101">
        <ele>30</ele>
        <time>2025-01-19T17:11:15Z</time>
      </trkpt>
      <trkpt lat="48.96413" lon="1.85115">
        <ele>32</ele>
        <time>2025-01-19T17:14:38Z</time>
      </trkpt>
      <trkpt lat="48.96408" lon="1.85115">
        <ele>32</ele>
        <time>2025-01-19T17:14:45Z</time>
      </trkpt>
      <trkpt lat="48.9635" lon="1.85125">
        <ele>32</ele>
        <time>2025-01-19T17:16:03Z</time>
      </trkpt>
      <trkpt lat="48.96339" lon="1.85129">
        <ele>32</ele>
        <time>2025-01-19T17:16:18Z</time>
      </trkpt>
      <trkpt lat="48.9635" lon="1.85125">
        <ele>32</ele>
        <time>2025-01-19T17:16:33Z</time>
      </trkpt>
      <trkpt lat="48.96319" lon="1.84979">
        <ele>33</ele>
        <time>2025-01-19T17:18:48Z</time>
      </trkpt>
      <trkpt lat="48.96294" lon="1.8483">
        <ele>29</ele>
        <time>2025-01-19T17:21:02Z</time>
      </trkpt>
      <trkpt lat="48.96286" lon="1.84738">
        <ele>30</ele>
        <time>2025-01-19T17:22:24Z</time>
      </trkpt>
      <trkpt lat="48.9628" lon="1.84688">
        <ele>30</ele>
        <time>2025-01-19T17:23:08Z</time>
      </trkpt>
      <trkpt lat="48.96246" lon="1.84456">
        <ele>30</ele>
        <time>2025-01-19T17:26:36Z</time>
      </trkpt>
      <trkpt lat="48.96227" lon="1.84315">
        <ele>28</ele>
        <time>2025-01-19T17:28:43Z</time>
      </trkpt>
      <trkpt lat="48.96206" lon="1.84172">
        <ele>26</ele>
        <time>2025-01-19T17:30:51Z</time>
      </trkpt>
      <trkpt lat="48.96191" lon="1.84046">
        <ele>27</ele>
        <time>2025-01-19T17:32:43Z</time>
      </trkpt>
      <trkpt lat="48.9612" lon="1.83696">
        <ele>25</ele>
        <time>2025-01-19T17:38:04Z</time>
      </trkpt>
      <trkpt lat="48.96045" lon="1.835">
        <ele>25</ele>
        <time>2025-01-19T17:41:23Z</time>
      </trkpt>
      <trkpt lat="48.96016" lon="1.83409">
        <ele>25</ele>
        <time>2025-01-19T17:42:51Z</time>
      </trkpt>
      <trkpt lat="48.96189" lon="1.8332">
        <ele>25</ele>
        <time>2025-01-19T17:46:55Z</time>
      </trkpt>
      <trkpt lat="48.96361" lon="1.83254">
        <ele>26</ele>
        <time>2025-01-19T17:50:52Z</time>
      </trkpt>
      <trkpt lat="48.96429" lon="1.83273">
        <ele>27</ele>
        <time>2025-01-19T17:52:24Z</time>
      </trkpt>
      <trkpt lat="48.96504" lon="1.83377">
        <ele>26</ele>
        <time>2025-01-19T17:54:39Z</time>
      </trkpt>
      <trkpt lat="48.96499" lon="1.83367">
        <ele>26</ele>
        <time>2025-01-19T17:54:50Z</time>
      </trkpt>
      <trkpt lat="48.96508" lon="1.83375">
        <ele>26</ele>
        <time>2025-01-19T17:55:04Z</time>
      </trkpt>
      <trkpt lat="48.96533" lon="1.83389">
        <ele>26</ele>
        <time>2025-01-19T17:55:40Z</time>
      </trkpt>
      <trkpt lat="48.96557" lon="1.83393">
        <ele>26</ele>
        <time>2025-01-19T17:56:12Z</time>
      </trkpt>
      <trkpt lat="48.96579" lon="1.83389">
        <ele>26</ele>
        <time>2025-01-19T17:56:42Z</time>
      </trkpt>
      <trkpt lat="48.96663" lon="1.8335">
        <ele>25</ele>
        <time>2025-01-19T17:58:39Z</time>
      </trkpt>
      <trkpt lat="48.96719" lon="1.83325">
        <ele>25</ele>
        <time>2025-01-19T17:59:57Z</time>
      </trkpt>
      <trkpt lat="48.96734" lon="1.83317">
        <ele>25</ele>
        <time>2025-01-19T18:00:18Z</time>
      </trkpt>
      <trkpt lat="48.96751" lon="1.83306">
        <ele>25</ele>
        <time>2025-01-19T18:00:43Z</time>
      </trkpt>
      <trkpt lat="48.9676" lon="1.83298">
        <ele>25</ele>
        <time>2025-01-19T18:00:56Z</time>
      </trkpt>
      <trkpt lat="48.96762" lon="1.83294">
        <ele>25</ele>
        <time>2025-01-19T18:01:01Z</time>
      </trkpt>
      <trkpt lat="48.96764" lon="1.8328">
        <ele>25</ele>
        <time>2025-01-19T18:01:13Z</time>
      </trkpt>
      <trkpt lat="48.96755" lon="1.83236">
        <ele>24</ele>
        <time>2025-01-19T18:01:54Z</time>
      </trkpt>
      <trkpt lat="48.96749" lon="1.83219">
        <ele>24</ele>
        <time>2025-01-19T18:02:11Z</time>
      </trkpt>
      <trkpt lat="48.96754" lon="1.83213">
        <ele>24</ele>
        <time>2025-01-19T18:02:19Z</time>
      </trkpt>
      <trkpt lat="48.96749" lon="1.83176">
        <ele>23</ele>
        <time>2025-01-19T18:02:52Z</time>
      </trkpt>
      <trkpt lat="48.96758" lon="1.8316">
        <ele>23</ele>
        <time>2025-01-19T18:03:11Z</time>
      </trkpt>
      <trkpt lat="48.9677" lon="1.83106">
        <ele>24</ele>
        <time>2025-01-19T18:04:01Z</time>
      </trkpt>
      <trkpt lat="48.96809" lon="1.82963">
        <ele>24</ele>
        <time>2025-01-19T18:06:16Z</time>
      </trkpt>
      <trkpt lat="48.96805" lon="1.82957">
        <ele>23</ele>
        <time>2025-01-19T18:06:24Z</time>
      </trkpt>
      <trkpt lat="48.96802" lon="1.82958">
        <ele>23</ele>
        <time>2025-01-19T18:06:28Z</time>
      </trkpt>
      <trkpt lat="48.96805" lon="1.82957">
        <ele>23</ele>
        <time>2025-01-19T18:06:32Z</time>
      </trkpt>
      <trkpt lat="48.96805" lon="1.82948">
        <ele>23</ele>
        <time>2025-01-19T18:06:40Z</time>
      </trkpt>
      <trkpt lat="48.96808" lon="1.82941">
        <ele>23</ele>
        <time>2025-01-19T18:06:47Z</time>
      </trkpt>
      <trkpt lat="48.96814" lon="1.82938">
        <ele>23</ele>
        <time>2025-01-19T18:06:56Z</time>
      </trkpt>
      <trkpt lat="48.96819" lon="1.8294">
        <ele>23</ele>
        <time>2025-01-19T18:07:03Z</time>
      </trkpt>
      <trkpt lat="48.96819" lon="1.82928">
        <ele>23</ele>
        <time>2025-01-19T18:07:13Z</time>
      </trkpt>
      <trkpt lat="48.9681" lon="1.82848">
        <ele>21</ele>
        <time>2025-01-19T18:08:24Z</time>
      </trkpt>
      <trkpt lat="48.96789" lon="1.82705">
        <ele>21</ele>
        <time>2025-01-19T18:10:33Z</time>
      </trkpt>
      <trkpt lat="48.96763" lon="1.82549">
        <ele>17</ele>
        <time>2025-01-19T18:12:54Z</time>
      </trkpt>
      <trkpt lat="48.96761" lon="1.82535">
        <ele>17</ele>
        <time>2025-01-19T18:13:06Z</time>
      </trkpt>
      <trkpt lat="48.96772" lon="1.82386">
        <ele>17</ele>
        <time>2025-01-19T18:15:18Z</time>
      </trkpt>
      <trkpt lat="48.96774" lon="1.82362">
        <ele>17</ele>
        <time>2025-01-19T18:15:39Z</time>
      </trkpt>
      <trkpt lat="48.96776" lon="1.82312">
        <ele>18</ele>
        <time>2025-01-19T18:16:23Z</time>
      </trkpt>
      <trkpt lat="48.96757" lon="1.82208">
        <ele>19</ele>
        <time>2025-01-19T18:17:57Z</time>
      </trkpt>
      <trkpt lat="48.96749" lon="1.82172">
        <ele>19</ele>
        <time>2025-01-19T18:18:30Z</time>
      </trkpt>
      <trkpt lat="48.9674" lon="1.82033">
        <ele>19</ele>
        <time>2025-01-19T18:20:33Z</time>
      </trkpt>
      <trkpt lat="48.96761" lon="1.81715">
        <ele>20</ele>
        <time>2025-01-19T18:25:13Z</time>
      </trkpt>
      <trkpt lat="48.96744" lon="1.81476">
        <ele>19</ele>
        <time>2025-01-19T18:28:43Z</time>
      </trkpt>
      <trkpt lat="48.96732" lon="1.8138">
        <ele>19</ele>
        <time>2025-01-19T18:30:09Z</time>
      </trkpt>
      <trkpt lat="48.96697" lon="1.81226">
        <ele>18</ele>
        <time>2025-01-19T18:32:32Z</time>
      </trkpt>
      <trkpt lat="48.9669" lon="1.81156">
        <ele>20</ele>
        <time>2025-01-19T18:33:34Z</time>
      </trkpt>
      <trkpt lat="48.96694" lon="1.81118">
        <ele>21</ele>
        <time>2025-01-19T18:34:08Z</time>
      </trkpt>
      <trkpt lat="48.96719" lon="1.8109">
        <ele>20</ele>
        <time>2025-01-19T18:34:49Z</time>
      </trkpt>
      <trkpt lat="48.9676" lon="1.81068">
        <ele>19</ele>
        <time>2025-01-19T18:35:47Z</time>
      </trkpt>
      <trkpt lat="48.9682" lon="1.81051">
        <ele>20</ele>
        <time>2025-01-19T18:37:08Z</time>
      </trkpt>
      <trkpt lat="48.96911" lon="1.81026">
        <ele>21</ele>
        <time>2025-01-19T18:39:12Z</time>
      </trkpt>
      <trkpt lat="48.97016" lon="1.80981">
        <ele>20</ele>
        <time>2025-01-19T18:41:37Z</time>
      </trkpt>
      <trkpt lat="48.97026" lon="1.80986">
        <ele>20</ele>
        <time>2025-01-19T18:41:51Z</time>
      </trkpt>
      <trkpt lat="48.97046" lon="1.80985">
        <ele>20</ele>
        <time>2025-01-19T18:42:18Z</time>
      </trkpt>
      <trkpt lat="48.9709" lon="1.80963">
        <ele>19</ele>
        <time>2025-01-19T18:43:20Z</time>
      </trkpt>
      <trkpt lat="48.97096" lon="1.8096">
        <ele>19</ele>
        <time>2025-01-19T18:43:28Z</time>
      </trkpt>
      <trkpt lat="48.97096" lon="1.8094">
        <ele>19</ele>
        <time>2025-01-19T18:43:46Z</time>
      </trkpt>
      <trkpt lat="48.97089" lon="1.80896">
        <ele>19</ele>
        <time>2025-01-19T18:44:26Z</time>
      </trkpt>
      <trkpt lat="48.97073" lon="1.80864">
        <ele>19</ele>
        <time>2025-01-19T18:45:01Z</time>
      </trkpt>
      <trkpt lat="48.97071" lon="1.80861">
        <ele>19</ele>
        <time>2025-01-19T18:45:04Z</time>
      </trkpt>
      <trkpt lat="48.97038" lon="1.80722">
        <ele>18</ele>
        <time>2025-01-19T18:47:14Z</time>
      </trkpt>
      <trkpt lat="48.9703" lon="1.80711">
        <ele>18</ele>
        <time>2025-01-19T18:47:28Z</time>
      </trkpt>
      <trkpt lat="48.9703" lon="1.80702">
        <ele>17</ele>
        <time>2025-01-19T18:47:36Z</time>
      </trkpt>
      <trkpt lat="48.96936" lon="1.80372">
        <ele>17</ele>
        <time>2025-01-19T18:52:51Z</time>
      </trkpt>
      <trkpt lat="48.96921" lon="1.8033">
        <ele>17</ele>
        <time>2025-01-19T18:53:33Z</time>
      </trkpt>
      <trkpt lat="48.96899" lon="1.80233">
        <ele>19</ele>
        <time>2025-01-19T18:55:03Z</time>
      </trkpt>
      <trkpt lat="48.96874" lon="1.80164">
        <ele>20</ele>
        <time>2025-01-19T18:56:12Z</time>
      </trkpt>
      <trkpt lat="48.9686" lon="1.80084">
        <ele>22</ele>
        <time>2025-01-19T18:57:25Z</time>
      </trkpt>
      <trkpt lat="48.9683" lon="1.79888">
        <ele>24</ele>
        <time>2025-01-19T19:00:21Z</time>
      </trkpt>
      <trkpt lat="48.96828" lon="1.7988">
        <ele>23</ele>
        <time>2025-01-19T19:00:29Z</time>
      </trkpt>
      <trkpt lat="48.96736" lon="1.79652">
        <ele>19</ele>
        <time>2025-01-19T19:04:23Z</time>
      </trkpt>
      <trkpt lat="48.96726" lon="1.79626">
        <ele>19</ele>
        <time>2025-01-19T19:04:49Z</time>
      </trkpt>
      <trkpt lat="48.96664" lon="1.79653">
        <ele>18</ele>
        <time>2025-01-19T19:06:15Z</time>
      </trkpt>
      <trkpt lat="48.96602" lon="1.79677">
        <ele>19</ele>
        <time>2025-01-19T19:07:41Z</time>
      </trkpt>
      <trkpt lat="48.96586" lon="1.79681">
        <ele>19</ele>
        <time>2025-01-19T19:08:02Z</time>
      </trkpt>
      <trkpt lat="48.96536" lon="1.79695">
        <ele>20</ele>
        <time>2025-01-19T19:09:10Z</time>
      </trkpt>
      <trkpt lat="48.96457" lon="1.79726">
        <ele>22</ele>
        <time>2025-01-19T19:10:59Z</time>
      </trkpt>
      <trkpt lat="48.96405" lon="1.79752">
        <ele>24</ele>
        <time>2025-01-19T19:12:12Z</time>
      </trkpt>
      <trkpt lat="48.96345" lon="1.79778">
        <ele>24</ele>
        <time>2025-01-19T19:13:35Z</time>
      </trkpt>
      <trkpt lat="48.96334" lon="1.79782">
        <ele>24</ele>
        <time>2025-01-19T19:13:51Z</time>
      </trkpt>
      <trkpt lat="48.96332" lon="1.79808">
        <ele>24</ele>
        <time>2025-01-19T19:14:13Z</time>
      </trkpt>
      <trkpt lat="48.96328" lon="1.7985">
        <ele>22</ele>
        <time>2025-01-19T19:14:51Z</time>
      </trkpt>
      <trkpt lat="48.96325" lon="1.79916">
        <ele>20</ele>
        <time>2025-01-19T19:15:49Z</time>
      </trkpt>
      <trkpt lat="48.96324" lon="1.80044">
        <ele>19</ele>
        <time>2025-01-19T19:17:41Z</time>
      </trkpt>
      <trkpt lat="48.96336" lon="1.80091">
        <ele>19</ele>
        <time>2025-01-19T19:18:25Z</time>
      </trkpt>
      <trkpt lat="48.9634" lon="1.80114">
        <ele>19</ele>
        <time>2025-01-19T19:18:46Z</time>
      </trkpt>
      <trkpt lat="48.96352" lon="1.80299">
        <ele>21</ele>
        <time>2025-01-19T19:21:29Z</time>
      </trkpt>
      <trkpt lat="48.9637" lon="1.80434">
        <ele>20</ele>
        <time>2025-01-19T19:23:29Z</time>
      </trkpt>
      <trkpt lat="48.96392" lon="1.80557">
        <ele>20</ele>
        <time>2025-01-19T19:25:21Z</time>
      </trkpt>
      <trkpt lat="48.96402" lon="1.80624">
        <ele>20</ele>
        <time>2025-01-19T19:26:21Z</time>
      </trkpt>
      <trkpt lat="48.96415" lon="1.80685">
        <ele>20</ele>
        <time>2025-01-19T19:27:17Z</time>
      </trkpt>
      <trkpt lat="48.96427" lon="1.80753">
        <ele>22</ele>
        <time>2025-01-19T19:28:19Z</time>
      </trkpt>
      <trkpt lat="48.96428" lon="1.8078">
        <ele>22</ele>
        <time>2025-01-19T19:28:43Z</time>
      </trkpt>
      <trkpt lat="48.96426" lon="1.80808">
        <ele>22</ele>
        <time>2025-01-19T19:29:07Z</time>
      </trkpt>
      <trkpt lat="48.96335" lon="1.808">
        <ele>23</ele>
        <time>2025-01-19T19:31:09Z</time>
      </trkpt>
      <trkpt lat="48.9633" lon="1.80801">
        <ele>23</ele>
        <time>2025-01-19T19:31:16Z</time>
      </trkpt>
      <trkpt lat="48.96324" lon="1.80801">
        <ele>23</ele>
        <time>2025-01-19T19:31:24Z</time>
      </trkpt>
      <trkpt lat="48.96321" lon="1.80801">
        <ele>23</ele>
        <time>2025-01-19T19:31:28Z</time>
      </trkpt>
      <trkpt lat="48.96321" lon="1.80821">
        <ele>23</ele>
        <time>2025-01-19T19:31:45Z</time>
      </trkpt>
      <trkpt lat="48.96321" lon="1.80823">
        <ele>23</ele>
        <time>2025-01-19T19:31:47Z</time>
      </trkpt>
      <trkpt lat="48.96317" lon="1.80824">
        <ele>23</ele>
        <time>2025-01-19T19:31:53Z</time>
      </trkpt>
      <trkpt lat="48.96315" lon="1.80802">
        <ele>22</ele>
        <time>2025-01-19T19:32:12Z</time>
      </trkpt>
      <trkpt lat="48.963" lon="1.80802">
        <ele>22</ele>
        <time>2025-01-19T19:32:32Z</time>
      </trkpt>
      <trkpt lat="48.96299" lon="1.80807">
        <ele>22</ele>
        <time>2025-01-19T19:32:37Z</time>
      </trkpt>
      <trkpt lat="48.96282" lon="1.80807">
        <ele>22</ele>
        <time>2025-01-19T19:32:59Z</time>
      </trkpt>
      <trkpt lat="48.96284" lon="1.80798">
        <ele>22</ele>
        <time>2025-01-19T19:33:08Z</time>
      </trkpt>
      <trkpt lat="48.96284" lon="1.80798">
        <ele>22</ele>
        <time>2025-01-19T19:33:08Z</time>
      </trkpt>
      <trkpt lat="48.96286" lon="1.80791">
        <ele>22</ele>
        <time>2025-01-19T19:33:14Z</time>
      </trkpt>
      <trkpt lat="48.96287" lon="1.80777">
        <ele>22</ele>
        <time>2025-01-19T19:33:27Z</time>
      </trkpt>
      <trkpt lat="48.96284" lon="1.80723">
        <ele>22</ele>
        <time>2025-01-19T19:34:14Z</time>
      </trkpt>
    </trkseg>
  </trk>
</gpx>